sensor_id;sensor_type;location;lat;lon;timestamp;P1;durP1;ratioP1;P2;durP2;ratioP2
32455;SDS011;18912;43.270;27.942;2023-08-06T00:00:21;37.03;;;20.17;;
32455;SDS011;18912;43.270;27.942;2023-08-06T00:02:47;43.05;;;20.02;;
32455;SDS011;18912;43.270;27.942;2023-08-06T00:07:38;37.17;;;20.63;;
32455;SDS011;18912;43.270;27.942;2023-08-06T00:10:04;42.10;;;20.90;;
32455;SDS011;18912;43.270;27.942;2023-08-06T00:12:30;48.65;;;20.98;;
32455;SDS011;18912;43.270;27.942;2023-08-06T00:14:55;44.50;;;19.20;;
32455;SDS011;18912;43.270;27.942;2023-08-06T00:17:21;42.17;;;18.37;;
32455;SDS011;18912;43.270;27.942;2023-08-06T00:19:46;39.83;;;19.20;;
32455;SDS011;18912;43.270;27.942;2023-08-06T00:22:12;33.83;;;18.13;;
32455;SDS011;18912;43.270;27.942;2023-08-06T00:24:37;36.83;;;18.77;;
32455;SDS011;18912;43.270;27.942;2023-08-06T00:27:03;49.00;;;19.97;;
32455;SDS011;18912;43.270;27.942;2023-08-06T00:29:29;34.33;;;19.45;;
32455;SDS011;18912;43.270;27.942;2023-08-06T00:31:54;37.67;;;19.23;;
32455;SDS011;18912;43.270;27.942;2023-08-06T00:34:19;44.57;;;19.23;;
32455;SDS011;18912;43.270;27.942;2023-08-06T00:36:45;34.87;;;12.93;;
32455;SDS011;18912;43.270;27.942;2023-08-06T00:39:11;40.67;;;16.73;;
32455;SDS011;18912;43.270;27.942;2023-08-06T00:41:36;37.73;;;17.40;;
32455;SDS011;18912;43.270;27.942;2023-08-06T00:44:02;27.80;;;16.87;;
32455;SDS011;18912;43.270;27.942;2023-08-06T00:46:28;30.50;;;16.27;;
32455;SDS011;18912;43.270;27.942;2023-08-06T00:48:53;32.13;;;16.47;;
32455;SDS011;18912;43.270;27.942;2023-08-06T00:51:20;45.80;;;17.55;;
32455;SDS011;18912;43.270;27.942;2023-08-06T00:53:46;36.37;;;18.17;;
32455;SDS011;18912;43.270;27.942;2023-08-06T00:56:13;35.03;;;18.63;;
32455;SDS011;18912;43.270;27.942;2023-08-06T00:58:39;54.45;;;19.30;;
32455;SDS011;18912;43.270;27.942;2023-08-06T01:01:05;32.45;;;18.30;;
32455;SDS011;18912;43.270;27.942;2023-08-06T01:03:30;33.97;;;19.33;;
32455;SDS011;18912;43.270;27.942;2023-08-06T01:05:56;41.47;;;19.83;;
32455;SDS011;18912;43.270;27.942;2023-08-06T01:11:17;40.20;;;19.60;;
32455;SDS011;18912;43.270;27.942;2023-08-06T01:13:45;31.02;;;19.77;;
32455;SDS011;18912;43.270;27.942;2023-08-06T01:16:17;34.65;;;18.15;;
32455;SDS011;18912;43.270;27.942;2023-08-06T01:18:43;34.92;;;18.00;;
32455;SDS011;18912;43.270;27.942;2023-08-06T01:21:14;47.05;;;20.17;;
32455;SDS011;18912;43.270;27.942;2023-08-06T01:23:43;33.60;;;19.05;;
32455;SDS011;18912;43.270;27.942;2023-08-06T01:26:16;38.20;;;18.03;;
32455;SDS011;18912;43.270;27.942;2023-08-06T01:29:15;32.63;;;17.08;;
32455;SDS011;18912;43.270;27.942;2023-08-06T01:31:48;42.00;;;18.17;;
32455;SDS011;18912;43.270;27.942;2023-08-06T01:34:22;44.75;;;19.15;;
32455;SDS011;18912;43.270;27.942;2023-08-06T01:36:50;35.53;;;18.67;;
32455;SDS011;18912;43.270;27.942;2023-08-06T01:41:41;37.17;;;20.45;;
32455;SDS011;18912;43.270;27.942;2023-08-06T01:44:06;44.37;;;19.43;;
32455;SDS011;18912;43.270;27.942;2023-08-06T01:46:32;40.63;;;19.90;;
32455;SDS011;18912;43.270;27.942;2023-08-06T01:48:58;38.20;;;19.63;;
32455;SDS011;18912;43.270;27.942;2023-08-06T01:51:23;32.20;;;19.20;;
32455;SDS011;18912;43.270;27.942;2023-08-06T01:53:49;35.97;;;20.50;;
32455;SDS011;18912;43.270;27.942;2023-08-06T01:56:14;33.23;;;19.53;;
32455;SDS011;18912;43.270;27.942;2023-08-06T01:58:39;45.23;;;20.17;;
32455;SDS011;18912;43.270;27.942;2023-08-06T02:01:05;41.47;;;20.73;;
32455;SDS011;18912;43.270;27.942;2023-08-06T02:03:30;37.93;;;20.97;;
32455;SDS011;18912;43.270;27.942;2023-08-06T02:05:57;35.53;;;22.10;;
32455;SDS011;18912;43.270;27.942;2023-08-06T02:08:22;48.55;;;23.27;;
32455;SDS011;18912;43.270;27.942;2023-08-06T02:10:48;58.07;;;24.53;;
32455;SDS011;18912;43.270;27.942;2023-08-06T02:13:13;42.60;;;23.83;;
32455;SDS011;18912;43.270;27.942;2023-08-06T02:15:43;44.47;;;24.53;;
32455;SDS011;18912;43.270;27.942;2023-08-06T02:18:09;49.72;;;24.20;;
32455;SDS011;18912;43.270;27.942;2023-08-06T02:20:34;41.77;;;22.13;;
32455;SDS011;18912;43.270;27.942;2023-08-06T02:23:00;33.97;;;20.90;;
32455;SDS011;18912;43.270;27.942;2023-08-06T02:25:25;49.43;;;23.60;;
32455;SDS011;18912;43.270;27.942;2023-08-06T02:27:51;48.00;;;23.30;;
32455;SDS011;18912;43.270;27.942;2023-08-06T02:30:16;45.40;;;23.20;;
32455;SDS011;18912;43.270;27.942;2023-08-06T02:32:41;51.80;;;22.50;;
32455;SDS011;18912;43.270;27.942;2023-08-06T02:35:07;41.73;;;24.10;;
32455;SDS011;18912;43.270;27.942;2023-08-06T02:37:33;54.13;;;24.33;;
32455;SDS011;18912;43.270;27.942;2023-08-06T02:42:24;39.95;;;22.05;;
32455;SDS011;18912;43.270;27.942;2023-08-06T02:47:17;35.78;;;20.50;;
32455;SDS011;18912;43.270;27.942;2023-08-06T02:49:43;43.63;;;21.90;;
32455;SDS011;18912;43.270;27.942;2023-08-06T02:52:08;45.67;;;19.95;;
32455;SDS011;18912;43.270;27.942;2023-08-06T02:54:34;42.90;;;19.97;;
32455;SDS011;18912;43.270;27.942;2023-08-06T02:56:59;34.13;;;19.73;;
32455;SDS011;18912;43.270;27.942;2023-08-06T02:59:25;32.50;;;20.03;;
32455;SDS011;18912;43.270;27.942;2023-08-06T03:01:50;39.93;;;22.17;;
32455;SDS011;18912;43.270;27.942;2023-08-06T03:04:15;54.37;;;21.93;;
32455;SDS011;18912;43.270;27.942;2023-08-06T03:06:43;41.28;;;20.48;;
32455;SDS011;18912;43.270;27.942;2023-08-06T03:09:08;40.87;;;20.83;;
32455;SDS011;18912;43.270;27.942;2023-08-06T03:11:34;39.27;;;23.33;;
32455;SDS011;18912;43.270;27.942;2023-08-06T03:13:59;37.00;;;20.63;;
32455;SDS011;18912;43.270;27.942;2023-08-06T03:16:25;40.00;;;19.57;;
32455;SDS011;18912;43.270;27.942;2023-08-06T03:18:50;39.17;;;18.93;;
32455;SDS011;18912;43.270;27.942;2023-08-06T03:21:15;37.47;;;19.20;;
32455;SDS011;18912;43.270;27.942;2023-08-06T03:23:41;31.57;;;18.97;;
32455;SDS011;18912;43.270;27.942;2023-08-06T03:26:07;37.30;;;18.55;;
32455;SDS011;18912;43.270;27.942;2023-08-06T03:28:32;32.03;;;19.53;;
32455;SDS011;18912;43.270;27.942;2023-08-06T03:31:01;45.97;;;19.67;;
32455;SDS011;18912;43.270;27.942;2023-08-06T03:33:27;33.83;;;17.38;;
32455;SDS011;18912;43.270;27.942;2023-08-06T03:35:53;33.15;;;18.17;;
32455;SDS011;18912;43.270;27.942;2023-08-06T03:38:19;35.37;;;17.67;;
32455;SDS011;18912;43.270;27.942;2023-08-06T03:40:46;31.77;;;17.27;;
32455;SDS011;18912;43.270;27.942;2023-08-06T03:43:12;26.40;;;16.35;;
32455;SDS011;18912;43.270;27.942;2023-08-06T03:45:37;25.87;;;17.23;;
32455;SDS011;18912;43.270;27.942;2023-08-06T03:48:03;35.70;;;16.93;;
32455;SDS011;18912;43.270;27.942;2023-08-06T03:50:28;33.77;;;20.30;;
32455;SDS011;18912;43.270;27.942;2023-08-06T03:52:54;35.70;;;19.10;;
32455;SDS011;18912;43.270;27.942;2023-08-06T03:55:19;35.07;;;19.60;;
32455;SDS011;18912;43.270;27.942;2023-08-06T03:57:45;40.33;;;19.60;;
32455;SDS011;18912;43.270;27.942;2023-08-06T04:00:10;36.30;;;19.00;;
32455;SDS011;18912;43.270;27.942;2023-08-06T04:02:37;29.65;;;17.63;;
32455;SDS011;18912;43.270;27.942;2023-08-06T04:05:03;33.83;;;17.70;;
32455;SDS011;18912;43.270;27.942;2023-08-06T04:07:28;30.87;;;16.30;;
32455;SDS011;18912;43.270;27.942;2023-08-06T04:09:54;30.07;;;15.27;;
32455;SDS011;18912;43.270;27.942;2023-08-06T04:12:23;25.75;;;15.02;;
32455;SDS011;18912;43.270;27.942;2023-08-06T04:14:52;28.07;;;15.53;;
32455;SDS011;18912;43.270;27.942;2023-08-06T04:17:18;27.23;;;14.68;;
32455;SDS011;18912;43.270;27.942;2023-08-06T04:19:46;31.38;;;15.82;;
32455;SDS011;18912;43.270;27.942;2023-08-06T04:22:15;27.70;;;15.00;;
32455;SDS011;18912;43.270;27.942;2023-08-06T04:24:41;26.00;;;15.13;;
32455;SDS011;18912;43.270;27.942;2023-08-06T04:27:10;34.45;;;14.73;;
32455;SDS011;18912;43.270;27.942;2023-08-06T04:29:36;26.30;;;13.68;;
32455;SDS011;18912;43.270;27.942;2023-08-06T04:32:03;26.52;;;13.52;;
32455;SDS011;18912;43.270;27.942;2023-08-06T04:34:30;29.23;;;13.93;;
32455;SDS011;18912;43.270;27.942;2023-08-06T04:36:55;22.97;;;12.37;;
32455;SDS011;18912;43.270;27.942;2023-08-06T04:39:21;28.10;;;11.50;;
32455;SDS011;18912;43.270;27.942;2023-08-06T04:41:46;25.50;;;11.20;;
32455;SDS011;18912;43.270;27.942;2023-08-06T04:44:12;20.10;;;10.00;;
32455;SDS011;18912;43.270;27.942;2023-08-06T04:46:38;18.20;;;9.50;;
32455;SDS011;18912;43.270;27.942;2023-08-06T04:49:03;21.90;;;9.17;;
32455;SDS011;18912;43.270;27.942;2023-08-06T04:51:29;18.37;;;9.20;;
32455;SDS011;18912;43.270;27.942;2023-08-06T04:53:54;19.20;;;8.67;;
32455;SDS011;18912;43.270;27.942;2023-08-06T04:56:20;18.63;;;9.20;;
32455;SDS011;18912;43.270;27.942;2023-08-06T04:58:45;19.17;;;9.87;;
32455;SDS011;18912;43.270;27.942;2023-08-06T05:01:10;19.87;;;8.77;;
32455;SDS011;18912;43.270;27.942;2023-08-06T05:03:36;18.27;;;8.40;;
32455;SDS011;18912;43.270;27.942;2023-08-06T05:06:01;17.77;;;9.57;;
32455;SDS011;18912;43.270;27.942;2023-08-06T05:08:27;19.73;;;9.17;;
32455;SDS011;18912;43.270;27.942;2023-08-06T05:10:52;23.50;;;8.77;;
32455;SDS011;18912;43.270;27.942;2023-08-06T05:13:18;21.87;;;8.97;;
32455;SDS011;18912;43.270;27.942;2023-08-06T05:15:43;15.77;;;8.23;;
32455;SDS011;18912;43.270;27.942;2023-08-06T05:18:11;19.80;;;9.60;;
32455;SDS011;18912;43.270;27.942;2023-08-06T05:20:37;20.30;;;7.67;;
32455;SDS011;18912;43.270;27.942;2023-08-06T05:23:06;19.15;;;7.68;;
32455;SDS011;18912;43.270;27.942;2023-08-06T05:25:34;19.00;;;7.97;;
32455;SDS011;18912;43.270;27.942;2023-08-06T05:28:00;16.50;;;7.65;;
32455;SDS011;18912;43.270;27.942;2023-08-06T05:30:26;20.85;;;8.48;;
32455;SDS011;18912;43.270;27.942;2023-08-06T05:32:52;18.97;;;8.27;;
32455;SDS011;18912;43.270;27.942;2023-08-06T05:35:17;19.10;;;8.00;;
32455;SDS011;18912;43.270;27.942;2023-08-06T05:37:43;13.20;;;7.27;;
32455;SDS011;18912;43.270;27.942;2023-08-06T05:40:09;20.83;;;7.83;;
32455;SDS011;18912;43.270;27.942;2023-08-06T05:42:34;11.93;;;7.27;;
32455;SDS011;18912;43.270;27.942;2023-08-06T05:45:00;13.27;;;7.37;;
32455;SDS011;18912;43.270;27.942;2023-08-06T05:47:25;19.10;;;7.27;;
32455;SDS011;18912;43.270;27.942;2023-08-06T05:49:51;18.53;;;6.83;;
32455;SDS011;18912;43.270;27.942;2023-08-06T05:52:16;8.80;;;6.67;;
32455;SDS011;18912;43.270;27.942;2023-08-06T05:54:42;12.67;;;6.63;;
32455;SDS011;18912;43.270;27.942;2023-08-06T05:57:07;12.87;;;6.40;;
32455;SDS011;18912;43.270;27.942;2023-08-06T05:59:32;25.40;;;6.50;;
32455;SDS011;18912;43.270;27.942;2023-08-06T06:01:58;11.87;;;6.20;;
32455;SDS011;18912;43.270;27.942;2023-08-06T06:04:24;15.83;;;6.50;;
32455;SDS011;18912;43.270;27.942;2023-08-06T06:09:15;11.90;;;5.68;;
32455;SDS011;18912;43.270;27.942;2023-08-06T06:11:41;11.87;;;6.20;;
32455;SDS011;18912;43.270;27.942;2023-08-06T06:14:06;19.27;;;5.90;;
32455;SDS011;18912;43.270;27.942;2023-08-06T06:16:31;11.10;;;5.20;;
32455;SDS011;18912;43.270;27.942;2023-08-06T06:18:57;13.93;;;6.00;;
32455;SDS011;18912;43.270;27.942;2023-08-06T06:21:23;14.50;;;5.50;;
32455;SDS011;18912;43.270;27.942;2023-08-06T06:23:49;15.40;;;6.15;;
32455;SDS011;18912;43.270;27.942;2023-08-06T06:26:16;10.93;;;5.25;;
32455;SDS011;18912;43.270;27.942;2023-08-06T06:28:42;16.35;;;6.13;;
32455;SDS011;18912;43.270;27.942;2023-08-06T06:31:07;15.03;;;6.00;;
32455;SDS011;18912;43.270;27.942;2023-08-06T06:35:59;16.10;;;5.60;;
32455;SDS011;18912;43.270;27.942;2023-08-06T06:38:25;14.93;;;6.07;;
32455;SDS011;18912;43.270;27.942;2023-08-06T06:40:54;9.20;;;5.93;;
32455;SDS011;18912;43.270;27.942;2023-08-06T06:43:20;10.60;;;6.13;;
32455;SDS011;18912;43.270;27.942;2023-08-06T06:45:45;10.30;;;5.97;;
32455;SDS011;18912;43.270;27.942;2023-08-06T06:48:11;17.90;;;5.63;;
32455;SDS011;18912;43.270;27.942;2023-08-06T06:50:36;13.67;;;6.00;;
32455;SDS011;18912;43.270;27.942;2023-08-06T06:53:04;15.93;;;6.25;;
32455;SDS011;18912;43.270;27.942;2023-08-06T06:55:29;9.90;;;5.67;;
32455;SDS011;18912;43.270;27.942;2023-08-06T06:57:55;11.03;;;5.33;;
32455;SDS011;18912;43.270;27.942;2023-08-06T07:00:20;12.30;;;5.67;;
32455;SDS011;18912;43.270;27.942;2023-08-06T07:02:46;16.60;;;5.70;;
32455;SDS011;18912;43.270;27.942;2023-08-06T07:05:11;18.47;;;5.50;;
32455;SDS011;18912;43.270;27.942;2023-08-06T07:07:37;10.90;;;5.33;;
32455;SDS011;18912;43.270;27.942;2023-08-06T07:10:02;9.63;;;4.77;;
32455;SDS011;18912;43.270;27.942;2023-08-06T07:12:28;10.43;;;5.00;;
32455;SDS011;18912;43.270;27.942;2023-08-06T07:14:53;12.90;;;5.40;;
32455;SDS011;18912;43.270;27.942;2023-08-06T07:17:19;14.37;;;5.33;;
32455;SDS011;18912;43.270;27.942;2023-08-06T07:19:44;12.80;;;5.30;;
32455;SDS011;18912;43.270;27.942;2023-08-06T07:22:10;13.73;;;5.53;;
32455;SDS011;18912;43.270;27.942;2023-08-06T07:24:35;16.00;;;6.27;;
32455;SDS011;18912;43.270;27.942;2023-08-06T07:27:01;15.63;;;5.83;;
32455;SDS011;18912;43.270;27.942;2023-08-06T07:29:26;16.70;;;5.60;;
32455;SDS011;18912;43.270;27.942;2023-08-06T07:31:52;32.23;;;6.80;;
32455;SDS011;18912;43.270;27.942;2023-08-06T07:34:17;10.23;;;5.13;;
32455;SDS011;18912;43.270;27.942;2023-08-06T07:36:44;19.30;;;5.60;;
32455;SDS011;18912;43.270;27.942;2023-08-06T07:39:10;19.05;;;5.82;;
32455;SDS011;18912;43.270;27.942;2023-08-06T07:41:35;11.90;;;5.40;;
32455;SDS011;18912;43.270;27.942;2023-08-06T07:44:01;11.73;;;6.07;;
32455;SDS011;18912;43.270;27.942;2023-08-06T07:46:26;11.10;;;5.23;;
32455;SDS011;18912;43.270;27.942;2023-08-06T07:48:52;10.93;;;5.43;;
32455;SDS011;18912;43.270;27.942;2023-08-06T07:51:18;12.93;;;5.17;;
32455;SDS011;18912;43.270;27.942;2023-08-06T07:53:44;13.93;;;5.30;;
32455;SDS011;18912;43.270;27.942;2023-08-06T07:56:10;8.52;;;4.93;;
32455;SDS011;18912;43.270;27.942;2023-08-06T07:58:35;38.37;;;6.20;;
32455;SDS011;18912;43.270;27.942;2023-08-06T08:01:01;10.67;;;5.13;;
32455;SDS011;18912;43.270;27.942;2023-08-06T08:03:26;14.77;;;4.63;;
32455;SDS011;18912;43.270;27.942;2023-08-06T08:05:54;27.13;;;5.57;;
32455;SDS011;18912;43.270;27.942;2023-08-06T08:08:23;13.93;;;4.95;;
32455;SDS011;18912;43.270;27.942;2023-08-06T08:10:49;12.40;;;5.25;;
32455;SDS011;18912;43.270;27.942;2023-08-06T08:13:14;8.53;;;4.93;;
32455;SDS011;18912;43.270;27.942;2023-08-06T08:15:40;15.20;;;5.83;;
32455;SDS011;18912;43.270;27.942;2023-08-06T08:18:05;27.50;;;5.43;;
32455;SDS011;18912;43.270;27.942;2023-08-06T08:20:31;11.97;;;5.43;;
32455;SDS011;18912;43.270;27.942;2023-08-06T08:22:58;18.25;;;5.45;;
32455;SDS011;18912;43.270;27.942;2023-08-06T08:25:25;18.30;;;4.95;;
32455;SDS011;18912;43.270;27.942;2023-08-06T08:30:17;12.95;;;5.05;;
32455;SDS011;18912;43.270;27.942;2023-08-06T08:32:42;11.37;;;4.83;;
32455;SDS011;18912;43.270;27.942;2023-08-06T08:35:08;13.60;;;5.33;;
32455;SDS011;18912;43.270;27.942;2023-08-06T08:37:33;15.23;;;5.70;;
32455;SDS011;18912;43.270;27.942;2023-08-06T08:39:59;13.30;;;5.17;;
32455;SDS011;18912;43.270;27.942;2023-08-06T08:42:26;11.95;;;4.88;;
32455;SDS011;18912;43.270;27.942;2023-08-06T08:44:52;12.40;;;5.57;;
32455;SDS011;18912;43.270;27.942;2023-08-06T08:47:19;13.50;;;4.72;;
32455;SDS011;18912;43.270;27.942;2023-08-06T08:49:44;13.00;;;4.93;;
32455;SDS011;18912;43.270;27.942;2023-08-06T08:52:12;13.40;;;4.57;;
32455;SDS011;18912;43.270;27.942;2023-08-06T08:54:41;13.15;;;4.70;;
32455;SDS011;18912;43.270;27.942;2023-08-06T08:57:08;15.32;;;5.03;;
32455;SDS011;18912;43.270;27.942;2023-08-06T08:59:34;9.53;;;4.93;;
32455;SDS011;18912;43.270;27.942;2023-08-06T09:02:00;10.70;;;4.57;;
32455;SDS011;18912;43.270;27.942;2023-08-06T09:04:26;11.70;;;4.88;;
32455;SDS011;18912;43.270;27.942;2023-08-06T09:06:56;13.57;;;4.88;;
32455;SDS011;18912;43.270;27.942;2023-08-06T09:09:33;16.10;;;4.57;;
32455;SDS011;18912;43.270;27.942;2023-08-06T09:12:11;11.75;;;4.32;;
32455;SDS011;18912;43.270;27.942;2023-08-06T09:14:39;11.20;;;4.80;;
32455;SDS011;18912;43.270;27.942;2023-08-06T09:17:05;10.93;;;4.43;;
32455;SDS011;18912;43.270;27.942;2023-08-06T09:19:31;13.77;;;4.65;;
32455;SDS011;18912;43.270;27.942;2023-08-06T09:21:58;14.30;;;4.93;;
32455;SDS011;18912;43.270;27.942;2023-08-06T09:24:24;9.88;;;4.50;;
32455;SDS011;18912;43.270;27.942;2023-08-06T09:26:51;50.67;;;6.60;;
32455;SDS011;18912;43.270;27.942;2023-08-06T09:29:16;15.63;;;4.57;;
32455;SDS011;18912;43.270;27.942;2023-08-06T09:31:45;14.80;;;4.23;;
32455;SDS011;18912;43.270;27.942;2023-08-06T09:34:12;11.23;;;4.22;;
32455;SDS011;18912;43.270;27.942;2023-08-06T09:36:42;9.77;;;4.43;;
32455;SDS011;18912;43.270;27.942;2023-08-06T09:39:15;42.65;;;5.15;;
32455;SDS011;18912;43.270;27.942;2023-08-06T09:41:42;8.90;;;3.83;;
32455;SDS011;18912;43.270;27.942;2023-08-06T09:44:19;29.27;;;5.05;;
32455;SDS011;18912;43.270;27.942;2023-08-06T09:46:49;7.93;;;4.05;;
32455;SDS011;18912;43.270;27.942;2023-08-06T09:49:20;9.02;;;3.83;;
32455;SDS011;18912;43.270;27.942;2023-08-06T09:51:47;14.43;;;4.68;;
32455;SDS011;18912;43.270;27.942;2023-08-06T09:54:16;7.25;;;3.72;;
32455;SDS011;18912;43.270;27.942;2023-08-06T09:56:42;9.63;;;4.43;;
32455;SDS011;18912;43.270;27.942;2023-08-06T09:59:08;16.30;;;4.75;;
32455;SDS011;18912;43.270;27.942;2023-08-06T10:01:35;14.77;;;4.43;;
32455;SDS011;18912;43.270;27.942;2023-08-06T10:04:01;18.35;;;4.07;;
32455;SDS011;18912;43.270;27.942;2023-08-06T10:06:28;14.63;;;4.38;;
32455;SDS011;18912;43.270;27.942;2023-08-06T10:08:54;11.23;;;4.78;;
32455;SDS011;18912;43.270;27.942;2023-08-06T10:11:23;17.43;;;4.87;;
32455;SDS011;18912;43.270;27.942;2023-08-06T10:13:52;14.63;;;5.72;;
32455;SDS011;18912;43.270;27.942;2023-08-06T10:16:23;17.83;;;5.03;;
32455;SDS011;18912;43.270;27.942;2023-08-06T10:18:49;17.63;;;4.97;;
32455;SDS011;18912;43.270;27.942;2023-08-06T10:21:16;15.10;;;4.88;;
32455;SDS011;18912;43.270;27.942;2023-08-06T10:23:41;14.77;;;4.37;;
32455;SDS011;18912;43.270;27.942;2023-08-06T10:26:07;14.33;;;4.50;;
32455;SDS011;18912;43.270;27.942;2023-08-06T10:28:36;11.48;;;5.22;;
32455;SDS011;18912;43.270;27.942;2023-08-06T10:31:02;12.90;;;5.00;;
32455;SDS011;18912;43.270;27.942;2023-08-06T10:33:44;16.38;;;4.80;;
32455;SDS011;18912;43.270;27.942;2023-08-06T10:36:11;15.00;;;4.93;;
32455;SDS011;18912;43.270;27.942;2023-08-06T10:41:21;14.77;;;5.43;;
32455;SDS011;18912;43.270;27.942;2023-08-06T10:43:49;12.20;;;4.75;;
32455;SDS011;18912;43.270;27.942;2023-08-06T10:46:26;9.98;;;4.85;;
32455;SDS011;18912;43.270;27.942;2023-08-06T10:48:53;13.63;;;5.20;;
32455;SDS011;18912;43.270;27.942;2023-08-06T10:53:45;18.40;;;5.55;;
32455;SDS011;18912;43.270;27.942;2023-08-06T10:56:13;13.23;;;5.18;;
32455;SDS011;18912;43.270;27.942;2023-08-06T10:58:40;6.93;;;4.32;;
32455;SDS011;18912;43.270;27.942;2023-08-06T11:01:06;14.85;;;5.65;;
32455;SDS011;18912;43.270;27.942;2023-08-06T11:03:32;12.98;;;4.88;;
32455;SDS011;18912;43.270;27.942;2023-08-06T11:05:59;15.02;;;4.97;;
32455;SDS011;18912;43.270;27.942;2023-08-06T11:08:29;11.82;;;4.97;;
32455;SDS011;18912;43.270;27.942;2023-08-06T11:11:08;17.98;;;5.47;;
32455;SDS011;18912;43.270;27.942;2023-08-06T11:13:41;11.63;;;4.97;;
32455;SDS011;18912;43.270;27.942;2023-08-06T11:16:08;12.90;;;5.65;;
32455;SDS011;18912;43.270;27.942;2023-08-06T11:18:35;10.80;;;5.35;;
32455;SDS011;18912;43.270;27.942;2023-08-06T11:21:01;7.47;;;4.38;;
32455;SDS011;18912;43.270;27.942;2023-08-06T11:25:56;12.68;;;4.78;;
32455;SDS011;18912;43.270;27.942;2023-08-06T11:28:22;19.85;;;5.20;;
32455;SDS011;18912;43.270;27.942;2023-08-06T11:30:49;21.63;;;5.65;;
32455;SDS011;18912;43.270;27.942;2023-08-06T11:33:19;10.48;;;5.38;;
32455;SDS011;18912;43.270;27.942;2023-08-06T11:35:52;17.13;;;5.65;;
32455;SDS011;18912;43.270;27.942;2023-08-06T11:38:21;17.90;;;5.88;;
32455;SDS011;18912;43.270;27.942;2023-08-06T11:40:47;22.98;;;5.82;;
32455;SDS011;18912;43.270;27.942;2023-08-06T11:43:13;14.85;;;5.28;;
32455;SDS011;18912;43.270;27.942;2023-08-06T11:45:39;16.40;;;6.25;;
32455;SDS011;18912;43.270;27.942;2023-08-06T11:50:31;13.25;;;5.30;;
32455;SDS011;18912;43.270;27.942;2023-08-06T11:52:59;12.35;;;5.63;;
32455;SDS011;18912;43.270;27.942;2023-08-06T11:55:25;10.80;;;5.82;;
32455;SDS011;18912;43.270;27.942;2023-08-06T11:57:53;14.05;;;5.13;;
32455;SDS011;18912;43.270;27.942;2023-08-06T12:02:47;22.05;;;5.85;;
32455;SDS011;18912;43.270;27.942;2023-08-06T12:05:21;22.60;;;6.47;;
32455;SDS011;18912;43.270;27.942;2023-08-06T12:07:58;17.17;;;6.28;;
32455;SDS011;18912;43.270;27.942;2023-08-06T12:10:26;21.67;;;6.80;;
32455;SDS011;18912;43.270;27.942;2023-08-06T12:12:53;35.83;;;8.23;;
32455;SDS011;18912;43.270;27.942;2023-08-06T12:15:19;23.33;;;6.68;;
32455;SDS011;18912;43.270;27.942;2023-08-06T12:17:45;26.20;;;4.70;;
32455;SDS011;18912;43.270;27.942;2023-08-06T12:20:11;12.90;;;3.93;;
32455;SDS011;18912;43.270;27.942;2023-08-06T12:22:37;19.17;;;3.35;;
32455;SDS011;18912;43.270;27.942;2023-08-06T12:25:08;8.05;;;3.13;;
32455;SDS011;18912;43.270;27.942;2023-08-06T12:27:45;9.88;;;3.05;;
32455;SDS011;18912;43.270;27.942;2023-08-06T12:30:12;15.57;;;3.75;;
32455;SDS011;18912;43.270;27.942;2023-08-06T12:32:38;9.20;;;3.55;;
32455;SDS011;18912;43.270;27.942;2023-08-06T12:35:04;7.90;;;2.95;;
32455;SDS011;18912;43.270;27.942;2023-08-06T12:37:32;7.45;;;3.17;;
32455;SDS011;18912;43.270;27.942;2023-08-06T12:39:58;9.95;;;3.88;;
32455;SDS011;18912;43.270;27.942;2023-08-06T12:42:23;5.17;;;3.10;;
32455;SDS011;18912;43.270;27.942;2023-08-06T12:44:49;7.23;;;3.50;;
32455;SDS011;18912;43.270;27.942;2023-08-06T12:47:15;7.20;;;3.23;;
32455;SDS011;18912;43.270;27.942;2023-08-06T12:49:42;8.73;;;3.50;;
32455;SDS011;18912;43.270;27.942;2023-08-06T12:52:07;6.57;;;3.60;;
32455;SDS011;18912;43.270;27.942;2023-08-06T12:54:34;12.48;;;4.05;;
32455;SDS011;18912;43.270;27.942;2023-08-06T12:57:03;10.90;;;3.40;;
32455;SDS011;18912;43.270;27.942;2023-08-06T12:59:29;11.13;;;3.70;;
32455;SDS011;18912;43.270;27.942;2023-08-06T13:01:56;6.55;;;4.35;;
32455;SDS011;18912;43.270;27.942;2023-08-06T13:04:21;17.43;;;10.20;;
32455;SDS011;18912;43.270;27.942;2023-08-06T13:06:47;10.90;;;5.13;;
32455;SDS011;18912;43.270;27.942;2023-08-06T13:09:13;10.03;;;4.80;;
32455;SDS011;18912;43.270;27.942;2023-08-06T13:11:39;23.67;;;14.10;;
32455;SDS011;18912;43.270;27.942;2023-08-06T13:14:08;23.35;;;11.15;;
32455;SDS011;18912;43.270;27.942;2023-08-06T13:16:39;15.20;;;7.60;;
32455;SDS011;18912;43.270;27.942;2023-08-06T13:19:06;5.65;;;3.60;;
32455;SDS011;18912;43.270;27.942;2023-08-06T13:24:20;5.43;;;3.17;;
32455;SDS011;18912;43.270;27.942;2023-08-06T13:26:46;17.20;;;6.43;;
32455;SDS011;18912;43.270;27.942;2023-08-06T13:29:12;8.77;;;5.67;;
32455;SDS011;18912;43.270;27.942;2023-08-06T13:31:37;9.00;;;5.53;;
32455;SDS011;18912;43.270;27.942;2023-08-06T13:34:03;21.33;;;11.80;;
32455;SDS011;18912;43.270;27.942;2023-08-06T13:36:29;8.55;;;3.60;;
32455;SDS011;18912;43.270;27.942;2023-08-06T13:38:56;11.60;;;3.75;;
32455;SDS011;18912;43.270;27.942;2023-08-06T13:41:22;10.30;;;7.15;;
32455;SDS011;18912;43.270;27.942;2023-08-06T13:43:48;12.40;;;8.18;;
32455;SDS011;18912;43.270;27.942;2023-08-06T13:46:13;5.97;;;3.50;;
32455;SDS011;18912;43.270;27.942;2023-08-06T13:48:43;12.07;;;7.85;;
32455;SDS011;18912;43.270;27.942;2023-08-06T13:51:11;12.82;;;4.03;;
32455;SDS011;18912;43.270;27.942;2023-08-06T13:53:37;7.82;;;3.75;;
32455;SDS011;18912;43.270;27.942;2023-08-06T13:56:04;11.75;;;7.15;;
32455;SDS011;18912;43.270;27.942;2023-08-06T13:58:31;14.70;;;7.05;;
32455;SDS011;18912;43.270;27.942;2023-08-06T14:03:23;20.85;;;12.93;;
32455;SDS011;18912;43.270;27.942;2023-08-06T14:05:48;18.33;;;10.57;;
32455;SDS011;18912;43.270;27.942;2023-08-06T14:08:15;7.70;;;4.10;;
32455;SDS011;18912;43.270;27.942;2023-08-06T14:10:43;4.80;;;3.35;;
32455;SDS011;18912;43.270;27.942;2023-08-06T14:13:09;10.00;;;3.00;;
32455;SDS011;18912;43.270;27.942;2023-08-06T14:15:35;14.55;;;7.43;;
32455;SDS011;18912;43.270;27.942;2023-08-06T14:18:01;9.80;;;4.03;;
32455;SDS011;18912;43.270;27.942;2023-08-06T14:20:27;9.05;;;3.22;;
32455;SDS011;18912;43.270;27.942;2023-08-06T14:22:53;7.97;;;3.03;;
32455;SDS011;18912;43.270;27.942;2023-08-06T14:25:18;8.13;;;3.87;;
32455;SDS011;18912;43.270;27.942;2023-08-06T14:27:44;9.20;;;4.93;;
32455;SDS011;18912;43.270;27.942;2023-08-06T14:30:10;6.07;;;3.43;;
32455;SDS011;18912;43.270;27.942;2023-08-06T14:32:36;13.82;;;3.38;;
32455;SDS011;18912;43.270;27.942;2023-08-06T14:35:01;7.57;;;3.97;;
32455;SDS011;18912;43.270;27.942;2023-08-06T14:37:27;11.07;;;3.72;;
32455;SDS011;18912;43.270;27.942;2023-08-06T14:39:53;9.25;;;3.55;;
32455;SDS011;18912;43.270;27.942;2023-08-06T14:42:18;9.23;;;3.47;;
32455;SDS011;18912;43.270;27.942;2023-08-06T14:44:47;12.43;;;3.67;;
32455;SDS011;18912;43.270;27.942;2023-08-06T14:47:13;5.47;;;2.70;;
32455;SDS011;18912;43.270;27.942;2023-08-06T14:49:38;10.10;;;3.90;;
32455;SDS011;18912;43.270;27.942;2023-08-06T14:52:05;10.85;;;3.75;;